Pville, Alabama
Current Conditions -  °F | °C
As of 1:55 AM on Wednesday 22 Oct 2014 (Local Time) from K1A9 Reporting Station
Haze Haze  
Wind Chill: 49°   Ceiling: 500
Heat Index: 49°   Visibility: 0.75mi
Dew Point: 49°   Wind: 0mph
Humidity: 100%   Direction: NA
Pressure: 30.03"   Gusts: NA
Location:  32.4989°N, 86.4129°W
Report Text: K1A9 220655Z AUTO 00000KT 3/4SM BR VV005 10/10 A3003 RMK AO2 T00970097
Loading
Personal Weather Stations






























Interactive Weather Map
Tropical Storm Tracking
New forecast layout! Learn more

10-Day Weather Forecast

Advertisements
Track Severe Weather on mobile